sensor_id;sensor_type;location;lat;lon;timestamp;temperature;humidity
26326;DHT22;14032;52.510;7.342;2023-12-14T00:01:46;5.00;99.90
26326;DHT22;14032;52.510;7.342;2023-12-14T00:04:13;5.00;99.90
26326;DHT22;14032;52.510;7.342;2023-12-14T00:06:39;5.00;99.90
26326;DHT22;14032;52.510;7.342;2023-12-14T00:09:05;5.00;99.90
26326;DHT22;14032;52.510;7.342;2023-12-14T00:11:30;5.00;99.90
26326;DHT22;14032;52.510;7.342;2023-12-14T00:13:56;4.90;99.90
26326;DHT22;14032;52.510;7.342;2023-12-14T00:16:21;4.90;99.90
26326;DHT22;14032;52.510;7.342;2023-12-14T00:18:47;4.90;99.90
26326;DHT22;14032;52.510;7.342;2023-12-14T00:21:12;4.80;99.90
26326;DHT22;14032;52.510;7.342;2023-12-14T00:23:38;4.80;99.90
26326;DHT22;14032;52.510;7.342;2023-12-14T00:26:04;4.80;99.90
26326;DHT22;14032;52.510;7.342;2023-12-14T00:28:29;4.80;99.90
26326;DHT22;14032;52.510;7.342;2023-12-14T00:30:55;4.80;99.90
26326;DHT22;14032;52.510;7.342;2023-12-14T00:33:20;4.80;99.90
26326;DHT22;14032;52.510;7.342;2023-12-14T00:35:46;4.80;99.90
26326;DHT22;14032;52.510;7.342;2023-12-14T00:38:11;4.80;99.90
26326;DHT22;14032;52.510;7.342;2023-12-14T00:40:37;4.80;99.90
26326;DHT22;14032;52.510;7.342;2023-12-14T00:43:03;4.80;99.90
26326;DHT22;14032;52.510;7.342;2023-12-14T00:45:28;4.80;99.90
26326;DHT22;14032;52.510;7.342;2023-12-14T00:47:54;4.80;99.90
26326;DHT22;14032;52.510;7.342;2023-12-14T00:50:20;4.80;99.90
26326;DHT22;14032;52.510;7.342;2023-12-14T00:52:45;4.80;99.90
26326;DHT22;14032;52.510;7.342;2023-12-14T00:55:11;4.80;99.90
26326;DHT22;14032;52.510;7.342;2023-12-14T00:57:36;4.80;99.90
26326;DHT22;14032;52.510;7.342;2023-12-14T01:00:02;4.80;99.90
26326;DHT22;14032;52.510;7.342;2023-12-14T01:02:27;4.80;99.90
26326;DHT22;14032;52.510;7.342;2023-12-14T01:04:53;4.80;99.90
26326;DHT22;14032;52.510;7.342;2023-12-14T01:07:19;4.80;99.90
26326;DHT22;14032;52.510;7.342;2023-12-14T01:09:44;4.80;99.90
26326;DHT22;14032;52.510;7.342;2023-12-14T01:12:11;4.80;99.90
26326;DHT22;14032;52.510;7.342;2023-12-14T01:14:36;4.80;99.90
26326;DHT22;14032;52.510;7.342;2023-12-14T01:17:02;4.80;99.90
26326;DHT22;14032;52.510;7.342;2023-12-14T01:19:28;4.80;99.90
26326;DHT22;14032;52.510;7.342;2023-12-14T01:21:53;4.80;99.90
26326;DHT22;14032;52.510;7.342;2023-12-14T01:24:20;4.80;99.90
26326;DHT22;14032;52.510;7.342;2023-12-14T01:26:46;4.80;99.90
26326;DHT22;14032;52.510;7.342;2023-12-14T01:29:11;4.70;99.90
26326;DHT22;14032;52.510;7.342;2023-12-14T01:31:37;4.70;99.90
26326;DHT22;14032;52.510;7.342;2023-12-14T01:34:02;4.80;99.90
26326;DHT22;14032;52.510;7.342;2023-12-14T01:36:28;4.70;99.90
26326;DHT22;14032;52.510;7.342;2023-12-14T01:38:54;4.70;99.90
26326;DHT22;14032;52.510;7.342;2023-12-14T01:41:19;4.70;99.90
26326;DHT22;14032;52.510;7.342;2023-12-14T01:43:45;4.70;99.90
26326;DHT22;14032;52.510;7.342;2023-12-14T01:46:10;4.70;99.90
26326;DHT22;14032;52.510;7.342;2023-12-14T01:48:36;4.70;99.90
26326;DHT22;14032;52.510;7.342;2023-12-14T01:51:02;4.70;99.90
26326;DHT22;14032;52.510;7.342;2023-12-14T01:53:28;4.70;99.90
26326;DHT22;14032;52.510;7.342;2023-12-14T01:55:54;4.70;99.90
26326;DHT22;14032;52.510;7.342;2023-12-14T01:58:20;4.70;99.90
26326;DHT22;14032;52.510;7.342;2023-12-14T02:00:55;4.70;99.90
26326;DHT22;14032;52.510;7.342;2023-12-14T02:03:21;4.70;99.90
26326;DHT22;14032;52.510;7.342;2023-12-14T02:05:46;4.70;99.90
26326;DHT22;14032;52.510;7.342;2023-12-14T02:08:12;4.70;99.90
26326;DHT22;14032;52.510;7.342;2023-12-14T02:10:38;4.70;99.90
26326;DHT22;14032;52.510;7.342;2023-12-14T02:13:03;4.70;99.90
26326;DHT22;14032;52.510;7.342;2023-12-14T02:15:29;4.70;99.90
26326;DHT22;14032;52.510;7.342;2023-12-14T02:17:55;4.80;99.90
26326;DHT22;14032;52.510;7.342;2023-12-14T02:20:20;4.80;99.90
26326;DHT22;14032;52.510;7.342;2023-12-14T02:22:53;4.70;99.90
26326;DHT22;14032;52.510;7.342;2023-12-14T02:25:20;4.70;99.90
26326;DHT22;14032;52.510;7.342;2023-12-14T02:27:45;4.70;99.90
26326;DHT22;14032;52.510;7.342;2023-12-14T02:30:12;4.70;99.90
26326;DHT22;14032;52.510;7.342;2023-12-14T02:32:38;4.70;99.90
26326;DHT22;14032;52.510;7.342;2023-12-14T02:35:05;4.70;99.90
26326;DHT22;14032;52.510;7.342;2023-12-14T02:37:31;4.70;99.90
26326;DHT22;14032;52.510;7.342;2023-12-14T02:39:57;4.70;99.90
26326;DHT22;14032;52.510;7.342;2023-12-14T02:42:23;4.70;99.90
26326;DHT22;14032;52.510;7.342;2023-12-14T02:44:49;4.70;99.90
26326;DHT22;14032;52.510;7.342;2023-12-14T02:47:15;4.70;99.90
26326;DHT22;14032;52.510;7.342;2023-12-14T02:49:41;4.70;99.90
26326;DHT22;14032;52.510;7.342;2023-12-14T02:52:07;4.70;99.90
26326;DHT22;14032;52.510;7.342;2023-12-14T02:54:32;4.70;99.90
26326;DHT22;14032;52.510;7.342;2023-12-14T02:56:58;4.70;99.90
26326;DHT22;14032;52.510;7.342;2023-12-14T02:59:23;4.70;99.90
26326;DHT22;14032;52.510;7.342;2023-12-14T03:01:49;4.70;99.90
26326;DHT22;14032;52.510;7.342;2023-12-14T03:04:14;4.70;99.90
26326;DHT22;14032;52.510;7.342;2023-12-14T03:06:40;4.70;99.90
26326;DHT22;14032;52.510;7.342;2023-12-14T03:09:05;4.70;99.90
26326;DHT22;14032;52.510;7.342;2023-12-14T03:11:31;4.70;99.90
26326;DHT22;14032;52.510;7.342;2023-12-14T03:13:57;4.70;99.90
26326;DHT22;14032;52.510;7.342;2023-12-14T03:16:22;4.70;99.90
26326;DHT22;14032;52.510;7.342;2023-12-14T03:18:48;4.70;99.90
26326;DHT22;14032;52.510;7.342;2023-12-14T03:21:17;4.70;99.90
26326;DHT22;14032;52.510;7.342;2023-12-14T03:23:46;4.70;99.90
26326;DHT22;14032;52.510;7.342;2023-12-14T03:26:12;4.70;99.90
26326;DHT22;14032;52.510;7.342;2023-12-14T03:28:39;4.70;99.90
26326;DHT22;14032;52.510;7.342;2023-12-14T03:31:04;4.60;99.90
26326;DHT22;14032;52.510;7.342;2023-12-14T03:33:30;4.60;99.90
26326;DHT22;14032;52.510;7.342;2023-12-14T03:35:55;4.60;99.90
26326;DHT22;14032;52.510;7.342;2023-12-14T03:38:22;4.60;99.90
26326;DHT22;14032;52.510;7.342;2023-12-14T03:40:47;4.50;99.90
26326;DHT22;14032;52.510;7.342;2023-12-14T03:43:13;4.50;99.90
26326;DHT22;14032;52.510;7.342;2023-12-14T03:45:38;4.50;99.90
26326;DHT22;14032;52.510;7.342;2023-12-14T03:48:04;4.50;99.90
26326;DHT22;14032;52.510;7.342;2023-12-14T03:50:30;4.50;99.90
26326;DHT22;14032;52.510;7.342;2023-12-14T03:52:55;4.50;99.90
26326;DHT22;14032;52.510;7.342;2023-12-14T03:55:21;4.50;99.90
26326;DHT22;14032;52.510;7.342;2023-12-14T03:57:46;4.50;99.90
26326;DHT22;14032;52.510;7.342;2023-12-14T04:00:13;4.50;99.90
26326;DHT22;14032;52.510;7.342;2023-12-14T04:02:40;4.50;99.90
26326;DHT22;14032;52.510;7.342;2023-12-14T04:05:09;4.50;99.90
26326;DHT22;14032;52.510;7.342;2023-12-14T04:07:36;4.50;99.90
26326;DHT22;14032;52.510;7.342;2023-12-14T04:10:02;4.50;99.90
26326;DHT22;14032;52.510;7.342;2023-12-14T04:12:28;4.50;99.90
26326;DHT22;14032;52.510;7.342;2023-12-14T04:14:53;4.50;99.90
26326;DHT22;14032;52.510;7.342;2023-12-14T04:17:19;4.50;99.90
26326;DHT22;14032;52.510;7.342;2023-12-14T04:19:44;4.50;99.90
26326;DHT22;14032;52.510;7.342;2023-12-14T04:22:10;4.50;99.90
26326;DHT22;14032;52.510;7.342;2023-12-14T04:24:35;4.40;99.90
26326;DHT22;14032;52.510;7.342;2023-12-14T04:27:01;4.40;99.90
26326;DHT22;14032;52.510;7.342;2023-12-14T04:29:26;4.50;99.90
26326;DHT22;14032;52.510;7.342;2023-12-14T04:31:52;4.40;99.90
26326;DHT22;14032;52.510;7.342;2023-12-14T04:34:18;4.40;99.90
26326;DHT22;14032;52.510;7.342;2023-12-14T04:36:47;4.40;99.90
26326;DHT22;14032;52.510;7.342;2023-12-14T04:39:13;4.50;99.90
26326;DHT22;14032;52.510;7.342;2023-12-14T04:41:39;4.40;99.90
26326;DHT22;14032;52.510;7.342;2023-12-14T04:44:04;4.40;99.90
26326;DHT22;14032;52.510;7.342;2023-12-14T04:46:30;4.40;99.90
26326;DHT22;14032;52.510;7.342;2023-12-14T04:48:56;4.40;99.90
26326;DHT22;14032;52.510;7.342;2023-12-14T04:51:21;4.40;99.90
26326;DHT22;14032;52.510;7.342;2023-12-14T04:53:47;4.40;99.90
26326;DHT22;14032;52.510;7.342;2023-12-14T04:56:13;4.40;99.90
26326;DHT22;14032;52.510;7.342;2023-12-14T04:58:39;4.40;99.90
26326;DHT22;14032;52.510;7.342;2023-12-14T05:01:05;4.40;99.90
26326;DHT22;14032;52.510;7.342;2023-12-14T05:03:31;4.40;99.90
26326;DHT22;14032;52.510;7.342;2023-12-14T05:05:56;4.40;99.90
26326;DHT22;14032;52.510;7.342;2023-12-14T05:08:22;4.40;99.90
26326;DHT22;14032;52.510;7.342;2023-12-14T05:10:47;4.40;99.90
26326;DHT22;14032;52.510;7.342;2023-12-14T05:13:13;4.40;99.90
26326;DHT22;14032;52.510;7.342;2023-12-14T05:15:38;4.40;99.90
26326;DHT22;14032;52.510;7.342;2023-12-14T05:18:04;4.40;99.90
26326;DHT22;14032;52.510;7.342;2023-12-14T05:20:30;4.40;99.90
26326;DHT22;14032;52.510;7.342;2023-12-14T05:22:55;4.50;99.90
26326;DHT22;14032;52.510;7.342;2023-12-14T05:25:21;4.50;99.90
26326;DHT22;14032;52.510;7.342;2023-12-14T05:27:46;4.50;99.90
26326;DHT22;14032;52.510;7.342;2023-12-14T05:30:12;4.40;99.90
26326;DHT22;14032;52.510;7.342;2023-12-14T05:32:38;4.40;99.90
26326;DHT22;14032;52.510;7.342;2023-12-14T05:35:04;4.40;99.90
26326;DHT22;14032;52.510;7.342;2023-12-14T05:37:29;4.40;99.90
26326;DHT22;14032;52.510;7.342;2023-12-14T05:39:55;4.40;99.90
26326;DHT22;14032;52.510;7.342;2023-12-14T05:42:20;4.40;99.90
26326;DHT22;14032;52.510;7.342;2023-12-14T05:44:47;4.40;99.90
26326;DHT22;14032;52.510;7.342;2023-12-14T05:47:12;4.40;99.90
26326;DHT22;14032;52.510;7.342;2023-12-14T05:49:44;4.40;99.90
26326;DHT22;14032;52.510;7.342;2023-12-14T05:52:10;4.40;99.90
26326;DHT22;14032;52.510;7.342;2023-12-14T05:54:37;4.40;99.90
26326;DHT22;14032;52.510;7.342;2023-12-14T05:57:03;4.40;99.90
26326;DHT22;14032;52.510;7.342;2023-12-14T05:59:28;4.40;99.90
26326;DHT22;14032;52.510;7.342;2023-12-14T06:01:58;4.40;99.90
26326;DHT22;14032;52.510;7.342;2023-12-14T06:04:24;4.40;99.90
26326;DHT22;14032;52.510;7.342;2023-12-14T06:06:50;4.40;99.90
26326;DHT22;14032;52.510;7.342;2023-12-14T06:09:15;4.30;99.90
26326;DHT22;14032;52.510;7.342;2023-12-14T06:11:43;4.40;99.90
26326;DHT22;14032;52.510;7.342;2023-12-14T06:14:08;4.40;99.90
26326;DHT22;14032;52.510;7.342;2023-12-14T06:16:34;4.40;99.90
26326;DHT22;14032;52.510;7.342;2023-12-14T06:18:59;4.40;99.90
26326;DHT22;14032;52.510;7.342;2023-12-14T06:21:25;4.30;99.90
26326;DHT22;14032;52.510;7.342;2023-12-14T06:23:53;4.30;99.90
26326;DHT22;14032;52.510;7.342;2023-12-14T06:26:19;4.40;99.90
26326;DHT22;14032;52.510;7.342;2023-12-14T06:28:45;4.30;99.90
26326;DHT22;14032;52.510;7.342;2023-12-14T06:31:14;4.30;99.90
26326;DHT22;14032;52.510;7.342;2023-12-14T06:33:40;4.40;99.90
26326;DHT22;14032;52.510;7.342;2023-12-14T06:36:10;4.40;99.90
26326;DHT22;14032;52.510;7.342;2023-12-14T06:38:39;4.40;99.90
26326;DHT22;14032;52.510;7.342;2023-12-14T06:41:06;4.40;99.90
26326;DHT22;14032;52.510;7.342;2023-12-14T06:43:32;4.40;99.90
26326;DHT22;14032;52.510;7.342;2023-12-14T06:45:57;4.40;99.90
26326;DHT22;14032;52.510;7.342;2023-12-14T06:48:23;4.40;99.90
26326;DHT22;14032;52.510;7.342;2023-12-14T06:50:48;4.40;99.90
26326;DHT22;14032;52.510;7.342;2023-12-14T06:53:17;4.40;99.90
26326;DHT22;14032;52.510;7.342;2023-12-14T06:55:44;4.40;99.90
26326;DHT22;14032;52.510;7.342;2023-12-14T06:58:09;4.40;99.90
26326;DHT22;14032;52.510;7.342;2023-12-14T07:00:37;4.40;99.90
26326;DHT22;14032;52.510;7.342;2023-12-14T07:03:06;4.40;99.90
26326;DHT22;14032;52.510;7.342;2023-12-14T07:05:31;4.40;99.90
26326;DHT22;14032;52.510;7.342;2023-12-14T07:07:58;4.40;99.90
26326;DHT22;14032;52.510;7.342;2023-12-14T07:10:24;4.40;99.90
26326;DHT22;14032;52.510;7.342;2023-12-14T07:12:50;4.40;99.90
26326;DHT22;14032;52.510;7.342;2023-12-14T07:15:16;4.40;99.90
26326;DHT22;14032;52.510;7.342;2023-12-14T07:17:41;4.40;99.90
26326;DHT22;14032;52.510;7.342;2023-12-14T07:20:07;4.40;99.90
26326;DHT22;14032;52.510;7.342;2023-12-14T07:22:33;4.40;99.90
26326;DHT22;14032;52.510;7.342;2023-12-14T07:25:02;4.40;99.90
26326;DHT22;14032;52.510;7.342;2023-12-14T07:27:28;4.40;99.90
26326;DHT22;14032;52.510;7.342;2023-12-14T07:29:54;4.40;99.90
26326;DHT22;14032;52.510;7.342;2023-12-14T07:32:20;4.40;99.90
26326;DHT22;14032;52.510;7.342;2023-12-14T07:34:46;4.40;99.90
26326;DHT22;14032;52.510;7.342;2023-12-14T07:37:12;4.40;99.90
26326;DHT22;14032;52.510;7.342;2023-12-14T07:39:38;4.40;99.90
26326;DHT22;14032;52.510;7.342;2023-12-14T07:42:04;4.40;99.90
26326;DHT22;14032;52.510;7.342;2023-12-14T07:44:30;4.40;99.90
26326;DHT22;14032;52.510;7.342;2023-12-14T07:46:56;4.40;99.90
26326;DHT22;14032;52.510;7.342;2023-12-14T07:49:22;4.40;99.90
26326;DHT22;14032;52.510;7.342;2023-12-14T07:51:49;4.40;99.90
26326;DHT22;14032;52.510;7.342;2023-12-14T07:54:15;4.50;99.90
26326;DHT22;14032;52.510;7.342;2023-12-14T07:56:40;4.40;99.90
26326;DHT22;14032;52.510;7.342;2023-12-14T07:59:06;4.50;99.90
26326;DHT22;14032;52.510;7.342;2023-12-14T08:01:33;4.50;99.90
26326;DHT22;14032;52.510;7.342;2023-12-14T08:03:59;4.50;99.90
26326;DHT22;14032;52.510;7.342;2023-12-14T08:06:25;4.40;99.90
26326;DHT22;14032;52.510;7.342;2023-12-14T08:08:51;4.50;99.90
26326;DHT22;14032;52.510;7.342;2023-12-14T08:11:16;4.50;99.90
26326;DHT22;14032;52.510;7.342;2023-12-14T08:13:42;4.50;99.90
26326;DHT22;14032;52.510;7.342;2023-12-14T08:16:10;4.50;99.90
26326;DHT22;14032;52.510;7.342;2023-12-14T08:18:39;4.50;99.90
26326;DHT22;14032;52.510;7.342;2023-12-14T08:21:06;4.50;99.90
26326;DHT22;14032;52.510;7.342;2023-12-14T08:23:31;4.50;99.90
26326;DHT22;14032;52.510;7.342;2023-12-14T08:25:57;4.50;99.90
26326;DHT22;14032;52.510;7.342;2023-12-14T08:28:23;4.50;99.90
26326;DHT22;14032;52.510;7.342;2023-12-14T08:30:49;4.50;99.90
26326;DHT22;14032;52.510;7.342;2023-12-14T08:33:15;4.50;99.90
26326;DHT22;14032;52.510;7.342;2023-12-14T08:35:40;4.60;99.90
26326;DHT22;14032;52.510;7.342;2023-12-14T08:38:06;4.50;99.90
26326;DHT22;14032;52.510;7.342;2023-12-14T08:40:32;4.50;99.90
26326;DHT22;14032;52.510;7.342;2023-12-14T08:43:01;4.50;99.90
26326;DHT22;14032;52.510;7.342;2023-12-14T08:45:27;4.60;99.90
26326;DHT22;14032;52.510;7.342;2023-12-14T08:47:53;4.60;99.90
26326;DHT22;14032;52.510;7.342;2023-12-14T08:50:19;4.60;99.90
26326;DHT22;14032;52.510;7.342;2023-12-14T08:52:44;4.60;99.90
26326;DHT22;14032;52.510;7.342;2023-12-14T08:55:10;4.60;99.90
26326;DHT22;14032;52.510;7.342;2023-12-14T08:57:36;4.60;99.90
26326;DHT22;14032;52.510;7.342;2023-12-14T09:00:02;4.60;99.90
26326;DHT22;14032;52.510;7.342;2023-12-14T09:02:30;4.60;99.90
26326;DHT22;14032;52.510;7.342;2023-12-14T09:04:55;4.70;99.90
26326;DHT22;14032;52.510;7.342;2023-12-14T09:07:21;4.70;99.90
26326;DHT22;14032;52.510;7.342;2023-12-14T09:09:46;4.70;99.90
26326;DHT22;14032;52.510;7.342;2023-12-14T09:12:12;4.70;99.90
26326;DHT22;14032;52.510;7.342;2023-12-14T09:14:37;4.70;99.90
26326;DHT22;14032;52.510;7.342;2023-12-14T09:17:03;4.70;99.90
26326;DHT22;14032;52.510;7.342;2023-12-14T09:19:32;4.70;99.90
26326;DHT22;14032;52.510;7.342;2023-12-14T09:21:57;4.80;99.90
26326;DHT22;14032;52.510;7.342;2023-12-14T09:24:23;4.70;99.90
26326;DHT22;14032;52.510;7.342;2023-12-14T09:26:49;4.80;99.90
26326;DHT22;14032;52.510;7.342;2023-12-14T09:29:14;4.80;99.90
26326;DHT22;14032;52.510;7.342;2023-12-14T09:31:45;4.80;99.90
26326;DHT22;14032;52.510;7.342;2023-12-14T09:34:11;4.80;99.90
26326;DHT22;14032;52.510;7.342;2023-12-14T09:36:38;4.80;99.90
26326;DHT22;14032;52.510;7.342;2023-12-14T09:39:04;4.80;99.90
26326;DHT22;14032;52.510;7.342;2023-12-14T09:41:30;4.90;99.90
26326;DHT22;14032;52.510;7.342;2023-12-14T09:43:56;4.90;99.90
26326;DHT22;14032;52.510;7.342;2023-12-14T09:46:23;4.90;99.90
26326;DHT22;14032;52.510;7.342;2023-12-14T09:48:50;4.90;99.90
26326;DHT22;14032;52.510;7.342;2023-12-14T09:51:16;4.90;99.90
26326;DHT22;14032;52.510;7.342;2023-12-14T09:53:42;4.90;99.90
26326;DHT22;14032;52.510;7.342;2023-12-14T09:56:08;4.90;99.90
26326;DHT22;14032;52.510;7.342;2023-12-14T09:58:34;4.90;99.90
26326;DHT22;14032;52.510;7.342;2023-12-14T10:01:00;4.90;99.90
26326;DHT22;14032;52.510;7.342;2023-12-14T10:03:42;4.90;99.90
26326;DHT22;14032;52.510;7.342;2023-12-14T10:06:07;4.90;99.90
26326;DHT22;14032;52.510;7.342;2023-12-14T10:08:33;5.00;99.90
26326;DHT22;14032;52.510;7.342;2023-12-14T10:10:58;5.00;99.90
26326;DHT22;14032;52.510;7.342;2023-12-14T10:13:39;5.00;99.90
26326;DHT22;14032;52.510;7.342;2023-12-14T10:16:04;5.00;99.90
26326;DHT22;14032;52.510;7.342;2023-12-14T10:18:31;5.10;99.90
26326;DHT22;14032;52.510;7.342;2023-12-14T10:20:59;5.10;99.90
26326;DHT22;14032;52.510;7.342;2023-12-14T10:23:27;5.10;99.90
26326;DHT22;14032;52.510;7.342;2023-12-14T10:25:53;5.10;99.90
26326;DHT22;14032;52.510;7.342;2023-12-14T10:28:18;5.10;99.90
26326;DHT22;14032;52.510;7.342;2023-12-14T10:30:44;5.10;99.90
26326;DHT22;14032;52.510;7.342;2023-12-14T10:33:10;5.10;99.90
26326;DHT22;14032;52.510;7.342;2023-12-14T10:35:39;5.10;99.90
26326;DHT22;14032;52.510;7.342;2023-12-14T10:38:05;5.10;99.90
26326;DHT22;14032;52.510;7.342;2023-12-14T10:40:32;5.10;99.90
26326;DHT22;14032;52.510;7.342;2023-12-14T10:43:03;5.10;99.90
26326;DHT22;14032;52.510;7.342;2023-12-14T10:45:32;5.10;99.90
26326;DHT22;14032;52.510;7.342;2023-12-14T10:48:00;5.20;99.90
26326;DHT22;14032;52.510;7.342;2023-12-14T10:50:30;5.20;99.90
26326;DHT22;14032;52.510;7.342;2023-12-14T10:53:00;5.20;99.90
26326;DHT22;14032;52.510;7.342;2023-12-14T10:55:59;5.20;99.90
26326;DHT22;14032;52.510;7.342;2023-12-14T10:58:19;5.20;99.90
26326;DHT22;14032;52.510;7.342;2023-12-14T11:00:59;5.20;99.90
26326;DHT22;14032;52.510;7.342;2023-12-14T11:03:26;5.20;99.90
26326;DHT22;14032;52.510;7.342;2023-12-14T11:05:51;5.20;99.90
26326;DHT22;14032;52.510;7.342;2023-12-14T11:08:17;5.20;99.90
26326;DHT22;14032;52.510;7.342;2023-12-14T11:10:53;5.20;99.90
26326;DHT22;14032;52.510;7.342;2023-12-14T11:13:22;5.20;99.90
26326;DHT22;14032;52.510;7.342;2023-12-14T11:15:51;5.20;99.90
26326;DHT22;14032;52.510;7.342;2023-12-14T11:18:24;5.20;99.90
26326;DHT22;14032;52.510;7.342;2023-12-14T11:20:53;5.20;99.90
26326;DHT22;14032;52.510;7.342;2023-12-14T11:25:58;5.20;99.90
26326;DHT22;14032;52.510;7.342;2023-12-14T11:28:24;5.20;99.90
26326;DHT22;14032;52.510;7.342;2023-12-14T11:30:50;5.20;99.90
26326;DHT22;14032;52.510;7.342;2023-12-14T11:33:16;5.20;99.90
26326;DHT22;14032;52.510;7.342;2023-12-14T11:35:42;5.20;99.90
26326;DHT22;14032;52.510;7.342;2023-12-14T11:38:08;5.10;99.90
26326;DHT22;14032;52.510;7.342;2023-12-14T11:40:41;5.10;99.90
26326;DHT22;14032;52.510;7.342;2023-12-14T11:43:07;5.10;99.90
26326;DHT22;14032;52.510;7.342;2023-12-14T11:45:40;5.10;99.90
26326;DHT22;14032;52.510;7.342;2023-12-14T11:48:07;5.10;99.90
26326;DHT22;14032;52.510;7.342;2023-12-14T11:50:36;5.20;99.90
26326;DHT22;14032;52.510;7.342;2023-12-14T11:53:02;5.20;99.90
26326;DHT22;14032;52.510;7.342;2023-12-14T11:55:29;5.20;99.90
26326;DHT22;14032;52.510;7.342;2023-12-14T11:57:56;5.20;99.90
26326;DHT22;14032;52.510;7.342;2023-12-14T12:00:26;5.20;99.90
26326;DHT22;14032;52.510;7.342;2023-12-14T12:02:52;5.20;99.90
26326;DHT22;14032;52.510;7.342;2023-12-14T12:05:48;5.20;99.90
26326;DHT22;14032;52.510;7.342;2023-12-14T12:08:16;5.20;99.90
26326;DHT22;14032;52.510;7.342;2023-12-14T12:10:47;5.20;99.90
26326;DHT22;14032;52.510;7.342;2023-12-14T12:13:15;5.20;99.90
26326;DHT22;14032;52.510;7.342;2023-12-14T12:15:41;5.20;99.90
26326;DHT22;14032;52.510;7.342;2023-12-14T12:18:11;5.20;99.90
26326;DHT22;14032;52.510;7.342;2023-12-14T12:20:37;5.20;99.90
26326;DHT22;14032;52.510;7.342;2023-12-14T12:23:06;5.20;99.90
26326;DHT22;14032;52.510;7.342;2023-12-14T12:25:33;5.20;99.90
26326;DHT22;14032;52.510;7.342;2023-12-14T12:28:00;5.20;99.90
26326;DHT22;14032;52.510;7.342;2023-12-14T12:30:27;5.20;99.90
26326;DHT22;14032;52.510;7.342;2023-12-14T12:32:53;5.10;99.90
26326;DHT22;14032;52.510;7.342;2023-12-14T12:35:20;5.20;99.90
26326;DHT22;14032;52.510;7.342;2023-12-14T12:37:46;5.20;99.90
26326;DHT22;14032;52.510;7.342;2023-12-14T12:40:12;5.20;99.90
26326;DHT22;14032;52.510;7.342;2023-12-14T12:42:38;5.20;99.90
26326;DHT22;14032;52.510;7.342;2023-12-14T12:45:05;5.20;99.90
26326;DHT22;14032;52.510;7.342;2023-12-14T12:47:31;5.20;99.90
26326;DHT22;14032;52.510;7.342;2023-12-14T12:49:56;5.20;99.90
26326;DHT22;14032;52.510;7.342;2023-12-14T12:52:22;5.20;99.90
26326;DHT22;14032;52.510;7.342;2023-12-14T12:54:47;5.20;99.90
26326;DHT22;14032;52.510;7.342;2023-12-14T12:57:13;5.20;99.90
26326;DHT22;14032;52.510;7.342;2023-12-14T12:59:39;5.20;99.90
26326;DHT22;14032;52.510;7.342;2023-12-14T13:02:05;5.20;99.90
26326;DHT22;14032;52.510;7.342;2023-12-14T13:04:30;5.20;99.90
26326;DHT22;14032;52.510;7.342;2023-12-14T13:06:57;5.20;99.90
26326;DHT22;14032;52.510;7.342;2023-12-14T13:09:23;5.20;99.90
26326;DHT22;14032;52.510;7.342;2023-12-14T13:11:51;5.20;99.90
26326;DHT22;14032;52.510;7.342;2023-12-14T13:14:17;5.20;99.90
26326;DHT22;14032;52.510;7.342;2023-12-14T13:16:43;5.10;99.90
26326;DHT22;14032;52.510;7.342;2023-12-14T13:19:09;5.20;99.90
26326;DHT22;14032;52.510;7.342;2023-12-14T13:21:35;5.20;99.90
26326;DHT22;14032;52.510;7.342;2023-12-14T13:24:04;5.20;99.90
26326;DHT22;14032;52.510;7.342;2023-12-14T13:26:29;5.20;99.90
26326;DHT22;14032;52.510;7.342;2023-12-14T13:28:55;5.20;99.90
26326;DHT22;14032;52.510;7.342;2023-12-14T13:31:21;5.20;99.90
26326;DHT22;14032;52.510;7.342;2023-12-14T13:33:47;5.20;99.90
26326;DHT22;14032;52.510;7.342;2023-12-14T13:36:14;5.20;99.90
26326;DHT22;14032;52.510;7.342;2023-12-14T13:38:41;5.20;99.90
26326;DHT22;14032;52.510;7.342;2023-12-14T13:41:07;5.20;99.90
26326;DHT22;14032;52.510;7.342;2023-12-14T13:43:33;5.10;99.90
26326;DHT22;14032;52.510;7.342;2023-12-14T13:45:59;5.20;99.90
26326;DHT22;14032;52.510;7.342;2023-12-14T13:48:25;5.20;99.90
26326;DHT22;14032;52.510;7.342;2023-12-14T13:50:55;5.20;99.90
26326;DHT22;14032;52.510;7.342;2023-12-14T13:53:21;5.20;99.90
26326;DHT22;14032;52.510;7.342;2023-12-14T13:55:47;5.20;99.90
26326;DHT22;14032;52.510;7.342;2023-12-14T13:58:14;5.10;99.90
26326;DHT22;14032;52.510;7.342;2023-12-14T14:00:41;5.10;99.90
26326;DHT22;14032;52.510;7.342;2023-12-14T14:03:06;5.10;99.90
26326;DHT22;14032;52.510;7.342;2023-12-14T14:05:33;5.10;99.90
26326;DHT22;14032;52.510;7.342;2023-12-14T14:07:59;5.10;99.90
26326;DHT22;14032;52.510;7.342;2023-12-14T14:10:25;5.10;99.90
26326;DHT22;14032;52.510;7.342;2023-12-14T14:12:50;5.00;99.90
26326;DHT22;14032;52.510;7.342;2023-12-14T14:15:17;5.10;99.90
26326;DHT22;14032;52.510;7.342;2023-12-14T14:17:43;5.00;99.90
26326;DHT22;14032;52.510;7.342;2023-12-14T14:20:08;5.00;99.90
26326;DHT22;14032;52.510;7.342;2023-12-14T14:22:38;5.00;99.90
26326;DHT22;14032;52.510;7.342;2023-12-14T14:25:07;5.00;99.90
26326;DHT22;14032;52.510;7.342;2023-12-14T14:27:34;5.00;99.90
26326;DHT22;14032;52.510;7.342;2023-12-14T14:29:59;5.00;99.90
26326;DHT22;14032;52.510;7.342;2023-12-14T14:32:26;5.00;99.90
26326;DHT22;14032;52.510;7.342;2023-12-14T14:34:53;5.00;99.90
26326;DHT22;14032;52.510;7.342;2023-12-14T14:37:20;5.00;99.90
26326;DHT22;14032;52.510;7.342;2023-12-14T14:39:46;5.00;99.90
26326;DHT22;14032;52.510;7.342;2023-12-14T14:42:13;4.90;99.90
26326;DHT22;14032;52.510;7.342;2023-12-14T14:44:39;5.00;99.90
26326;DHT22;14032;52.510;7.342;2023-12-14T14:47:05;4.90;99.90
26326;DHT22;14032;52.510;7.342;2023-12-14T14:49:31;4.90;99.90
26326;DHT22;14032;52.510;7.342;2023-12-14T14:51:57;4.90;99.90
26326;DHT22;14032;52.510;7.342;2023-12-14T14:54:23;4.90;99.90
26326;DHT22;14032;52.510;7.342;2023-12-14T14:56:48;4.90;99.90
26326;DHT22;14032;52.510;7.342;2023-12-14T14:59:14;4.90;99.90
26326;DHT22;14032;52.510;7.342;2023-12-14T15:01:41;4.90;99.90
26326;DHT22;14032;52.510;7.342;2023-12-14T15:04:07;4.90;99.90
26326;DHT22;14032;52.510;7.342;2023-12-14T15:06:32;4.90;99.90
26326;DHT22;14032;52.510;7.342;2023-12-14T15:08:59;4.90;99.90
26326;DHT22;14032;52.510;7.342;2023-12-14T15:11:25;4.90;99.90
26326;DHT22;14032;52.510;7.342;2023-12-14T15:13:50;4.90;99.90
26326;DHT22;14032;52.510;7.342;2023-12-14T15:16:17;4.90;99.90
26326;DHT22;14032;52.510;7.342;2023-12-14T15:24:01;4.90;99.90
26326;DHT22;14032;52.510;7.342;2023-12-14T15:26:27;4.90;99.90
26326;DHT22;14032;52.510;7.342;2023-12-14T15:28:57;4.90;99.90
26326;DHT22;14032;52.510;7.342;2023-12-14T15:31:23;4.80;99.90
26326;DHT22;14032;52.510;7.342;2023-12-14T15:33:48;4.80;99.90
26326;DHT22;14032;52.510;7.342;2023-12-14T15:36:14;4.80;99.90
26326;DHT22;14032;52.510;7.342;2023-12-14T15:38:39;4.80;99.90
26326;DHT22;14032;52.510;7.342;2023-12-14T15:41:06;4.80;99.90
26326;DHT22;14032;52.510;7.342;2023-12-14T15:43:32;4.80;99.90
26326;DHT22;14032;52.510;7.342;2023-12-14T15:45:58;4.80;99.90
26326;DHT22;14032;52.510;7.342;2023-12-14T15:48:23;4.80;99.90